sensor_id;sensor_type;location;lat;lon;timestamp;pressure;altitude;pressure_sealevel;temperature;humidity
60832;BME280;46665;51.558;-0.448;2023-07-31T00:01:55;100322.59;;;14.86;100.00
60832;BME280;46665;51.558;-0.448;2023-07-31T00:04:20;100318.41;;;14.88;100.00
60832;BME280;46665;51.558;-0.448;2023-07-31T00:06:45;100315.69;;;14.88;100.00
60832;BME280;46665;51.558;-0.448;2023-07-31T00:09:11;100323.09;;;14.88;100.00
60832;BME280;46665;51.558;-0.448;2023-07-31T00:11:36;100307.47;;;14.88;100.00
60832;BME280;46665;51.558;-0.448;2023-07-31T00:14:01;100311.34;;;14.87;100.00
60832;BME280;46665;51.558;-0.448;2023-07-31T00:16:27;100300.38;;;14.87;100.00
60832;BME280;46665;51.558;-0.448;2023-07-31T00:18:52;100298.63;;;14.91;100.00
60832;BME280;46665;51.558;-0.448;2023-07-31T00:21:18;100306.34;;;14.89;100.00
60832;BME280;46665;51.558;-0.448;2023-07-31T00:23:43;100306.84;;;14.91;100.00
60832;BME280;46665;51.558;-0.448;2023-07-31T00:26:08;100304.91;;;14.92;100.00
60832;BME280;46665;51.558;-0.448;2023-07-31T00:28:34;100299.09;;;14.93;100.00
60832;BME280;46665;51.558;-0.448;2023-07-31T00:30:59;100295.25;;;14.94;100.00
60832;BME280;46665;51.558;-0.448;2023-07-31T00:33:24;100289.44;;;14.96;100.00
60832;BME280;46665;51.558;-0.448;2023-07-31T00:35:50;100264.16;;;14.99;100.00
60832;BME280;46665;51.558;-0.448;2023-07-31T00:38:15;100273.66;;;15.02;100.00
60832;BME280;46665;51.558;-0.448;2023-07-31T00:40:41;100267.84;;;15.03;100.00
60832;BME280;46665;51.558;-0.448;2023-07-31T00:43:06;100259.97;;;15.02;100.00
60832;BME280;46665;51.558;-0.448;2023-07-31T00:45:32;100269.16;;;15.06;100.00
60832;BME280;46665;51.558;-0.448;2023-07-31T00:47:58;100258.53;;;15.04;100.00
60832;BME280;46665;51.558;-0.448;2023-07-31T00:50:24;100256.25;;;15.06;100.00
60832;BME280;46665;51.558;-0.448;2023-07-31T00:52:50;100251.91;;;15.05;100.00
60832;BME280;46665;51.558;-0.448;2023-07-31T00:55:15;100237.25;;;15.10;100.00
60832;BME280;46665;51.558;-0.448;2023-07-31T00:57:41;100245.13;;;15.11;100.00
60832;BME280;46665;51.558;-0.448;2023-07-31T01:00:08;100239.66;;;15.11;100.00
60832;BME280;46665;51.558;-0.448;2023-07-31T01:02:33;100235.81;;;15.12;100.00
60832;BME280;46665;51.558;-0.448;2023-07-31T01:05:00;100237.59;;;15.17;100.00
60832;BME280;46665;51.558;-0.448;2023-07-31T01:07:42;100220.97;;;15.13;100.00
60832;BME280;46665;51.558;-0.448;2023-07-31T01:10:23;100232.09;;;15.17;100.00
60832;BME280;46665;51.558;-0.448;2023-07-31T01:12:53;100225.16;;;15.20;100.00
60832;BME280;46665;51.558;-0.448;2023-07-31T01:15:19;100223.22;;;15.20;100.00
60832;BME280;46665;51.558;-0.448;2023-07-31T01:17:44;100215.00;;;15.20;100.00
60832;BME280;46665;51.558;-0.448;2023-07-31T01:20:29;100209.84;;;15.18;100.00
60832;BME280;46665;51.558;-0.448;2023-07-31T01:29:01;100208.22;;;15.26;100.00
60832;BME280;46665;51.558;-0.448;2023-07-31T01:31:30;100201.13;;;15.25;100.00
60832;BME280;46665;51.558;-0.448;2023-07-31T01:34:00;100184.03;;;15.28;100.00
60832;BME280;46665;51.558;-0.448;2023-07-31T01:36:26;100183.25;;;15.28;100.00
60832;BME280;46665;51.558;-0.448;2023-07-31T01:38:52;100184.84;;;15.29;100.00
60832;BME280;46665;51.558;-0.448;2023-07-31T01:41:18;100176.16;;;15.27;100.00
60832;BME280;46665;51.558;-0.448;2023-07-31T01:43:46;100170.81;;;15.30;100.00
60832;BME280;46665;51.558;-0.448;2023-07-31T01:46:12;100176.44;;;15.34;100.00
60832;BME280;46665;51.558;-0.448;2023-07-31T01:48:37;100167.13;;;15.35;100.00
60832;BME280;46665;51.558;-0.448;2023-07-31T01:51:03;100171.44;;;15.36;100.00
60832;BME280;46665;51.558;-0.448;2023-07-31T01:53:31;100170.16;;;15.33;100.00
60832;BME280;46665;51.558;-0.448;2023-07-31T01:55:56;100168.72;;;15.36;100.00
60832;BME280;46665;51.558;-0.448;2023-07-31T01:58:22;100167.25;;;15.38;100.00
60832;BME280;46665;51.558;-0.448;2023-07-31T02:00:47;100160.19;;;15.37;100.00
60832;BME280;46665;51.558;-0.448;2023-07-31T02:03:12;100153.56;;;15.38;100.00
60832;BME280;46665;51.558;-0.448;2023-07-31T02:05:48;100157.56;;;15.41;100.00
60832;BME280;46665;51.558;-0.448;2023-07-31T02:08:14;100155.31;;;15.43;100.00
60832;BME280;46665;51.558;-0.448;2023-07-31T02:10:39;100155.63;;;15.42;100.00
60832;BME280;46665;51.558;-0.448;2023-07-31T02:13:04;100141.94;;;15.42;100.00
60832;BME280;46665;51.558;-0.448;2023-07-31T02:15:30;100143.22;;;15.44;100.00
60832;BME280;46665;51.558;-0.448;2023-07-31T02:17:56;100143.56;;;15.43;100.00
60832;BME280;46665;51.558;-0.448;2023-07-31T02:20:21;100141.31;;;15.45;100.00
60832;BME280;46665;51.558;-0.448;2023-07-31T02:22:47;100131.28;;;15.49;100.00
60832;BME280;46665;51.558;-0.448;2023-07-31T02:25:12;100127.72;;;15.48;100.00
60832;BME280;46665;51.558;-0.448;2023-07-31T02:27:38;100115.63;;;15.49;100.00
60832;BME280;46665;51.558;-0.448;2023-07-31T02:30:03;100127.25;;;15.55;100.00
60832;BME280;46665;51.558;-0.448;2023-07-31T02:32:29;100115.78;;;15.53;100.00
60832;BME280;46665;51.558;-0.448;2023-07-31T02:34:54;100119.31;;;15.53;100.00
60832;BME280;46665;51.558;-0.448;2023-07-31T02:37:20;100121.09;;;15.58;100.00
60832;BME280;46665;51.558;-0.448;2023-07-31T02:39:45;100112.38;;;15.56;100.00
60832;BME280;46665;51.558;-0.448;2023-07-31T02:42:10;100112.69;;;15.54;100.00
60832;BME280;46665;51.558;-0.448;2023-07-31T02:44:36;100106.75;;;15.52;100.00
60832;BME280;46665;51.558;-0.448;2023-07-31T02:47:02;100105.44;;;15.58;100.00
60832;BME280;46665;51.558;-0.448;2023-07-31T02:49:28;100097.53;;;15.57;100.00
60832;BME280;46665;51.558;-0.448;2023-07-31T02:51:53;100089.00;;;15.58;100.00
60832;BME280;46665;51.558;-0.448;2023-07-31T02:54:19;100084.31;;;15.59;100.00
60832;BME280;46665;51.558;-0.448;2023-07-31T02:56:46;100086.72;;;15.60;100.00
60832;BME280;46665;51.558;-0.448;2023-07-31T02:59:12;100088.00;;;15.63;100.00
60832;BME280;46665;51.558;-0.448;2023-07-31T03:01:37;100095.44;;;15.63;100.00
60832;BME280;46665;51.558;-0.448;2023-07-31T03:04:03;100086.06;;;15.64;100.00
60832;BME280;46665;51.558;-0.448;2023-07-31T03:06:28;100097.03;;;15.64;100.00
60832;BME280;46665;51.558;-0.448;2023-07-31T03:08:54;100093.16;;;15.65;100.00
60832;BME280;46665;51.558;-0.448;2023-07-31T03:11:19;100095.25;;;15.68;100.00
60832;BME280;46665;51.558;-0.448;2023-07-31T03:13:45;100092.34;;;15.64;100.00
60832;BME280;46665;51.558;-0.448;2023-07-31T03:16:10;100088.50;;;15.65;100.00
60832;BME280;46665;51.558;-0.448;2023-07-31T03:18:36;100086.19;;;15.67;100.00
60832;BME280;46665;51.558;-0.448;2023-07-31T03:21:01;100081.38;;;15.64;100.00
60832;BME280;46665;51.558;-0.448;2023-07-31T03:23:26;100081.06;;;15.66;100.00
60832;BME280;46665;51.558;-0.448;2023-07-31T03:25:59;100085.88;;;15.69;100.00
60832;BME280;46665;51.558;-0.448;2023-07-31T03:28:25;100083.97;;;15.69;100.00
60832;BME280;46665;51.558;-0.448;2023-07-31T03:30:51;100077.84;;;15.72;100.00
60832;BME280;46665;51.558;-0.448;2023-07-31T03:33:16;100075.09;;;15.72;100.00
60832;BME280;46665;51.558;-0.448;2023-07-31T03:35:42;100071.03;;;15.78;100.00
60832;BME280;46665;51.558;-0.448;2023-07-31T03:38:07;100067.31;;;15.74;100.00
60832;BME280;46665;51.558;-0.448;2023-07-31T03:40:32;100069.28;;;15.74;100.00
60832;BME280;46665;51.558;-0.448;2023-07-31T03:42:58;100056.03;;;15.76;100.00
60832;BME280;46665;51.558;-0.448;2023-07-31T03:45:23;100061.66;;;15.79;100.00
60832;BME280;46665;51.558;-0.448;2023-07-31T03:47:49;100067.50;;;15.78;100.00
60832;BME280;46665;51.558;-0.448;2023-07-31T03:50:14;100053.63;;;15.74;100.00
60832;BME280;46665;51.558;-0.448;2023-07-31T03:52:41;100058.91;;;15.79;100.00
60832;BME280;46665;51.558;-0.448;2023-07-31T03:55:06;100057.00;;;15.80;100.00
60832;BME280;46665;51.558;-0.448;2023-07-31T03:57:32;100045.88;;;15.76;100.00
60832;BME280;46665;51.558;-0.448;2023-07-31T03:59:58;100044.88;;;15.81;100.00
60832;BME280;46665;51.558;-0.448;2023-07-31T04:02:23;100057.44;;;15.82;100.00
60832;BME280;46665;51.558;-0.448;2023-07-31T04:04:48;100046.47;;;15.82;100.00
60832;BME280;46665;51.558;-0.448;2023-07-31T04:07:14;100049.38;;;15.86;100.00
60832;BME280;46665;51.558;-0.448;2023-07-31T04:09:40;100053.25;;;15.85;100.00
60832;BME280;46665;51.558;-0.448;2023-07-31T04:12:06;100062.63;;;15.84;100.00
60832;BME280;46665;51.558;-0.448;2023-07-31T04:14:31;100058.28;;;15.82;100.00
60832;BME280;46665;51.558;-0.448;2023-07-31T04:16:57;100050.50;;;15.85;100.00
60832;BME280;46665;51.558;-0.448;2023-07-31T04:19:22;100048.91;;;15.84;100.00
60832;BME280;46665;51.558;-0.448;2023-07-31T04:21:47;100039.88;;;15.83;100.00
60832;BME280;46665;51.558;-0.448;2023-07-31T04:24:13;100041.47;;;15.84;100.00
60832;BME280;46665;51.558;-0.448;2023-07-31T04:26:39;100015.19;;;15.83;100.00
60832;BME280;46665;51.558;-0.448;2023-07-31T04:29:05;100015.84;;;15.80;100.00
60832;BME280;46665;51.558;-0.448;2023-07-31T04:31:30;100013.09;;;15.80;100.00
60832;BME280;46665;51.558;-0.448;2023-07-31T04:33:55;100010.38;;;15.80;100.00
60832;BME280;46665;51.558;-0.448;2023-07-31T04:36:21;100024.06;;;15.80;100.00
60832;BME280;46665;51.558;-0.448;2023-07-31T04:38:46;100023.25;;;15.79;100.00
60832;BME280;46665;51.558;-0.448;2023-07-31T04:41:12;100013.44;;;15.78;100.00
60832;BME280;46665;51.558;-0.448;2023-07-31T04:43:37;100009.22;;;15.81;100.00
60832;BME280;46665;51.558;-0.448;2023-07-31T04:46:05;100016.97;;;15.79;100.00
60832;BME280;46665;51.558;-0.448;2023-07-31T04:48:30;100016.50;;;15.77;100.00
60832;BME280;46665;51.558;-0.448;2023-07-31T04:50:55;100016.97;;;15.79;100.00
60832;BME280;46665;51.558;-0.448;2023-07-31T04:53:21;100017.44;;;15.81;100.00
60832;BME280;46665;51.558;-0.448;2023-07-31T04:55:46;100015.97;;;15.84;100.00
60832;BME280;46665;51.558;-0.448;2023-07-31T04:58:12;100015.50;;;15.81;100.00
60832;BME280;46665;51.558;-0.448;2023-07-31T05:00:37;100016.31;;;15.82;100.00
60832;BME280;46665;51.558;-0.448;2023-07-31T05:03:02;100022.75;;;15.86;100.00
60832;BME280;46665;51.558;-0.448;2023-07-31T05:05:29;100032.25;;;15.89;100.00
60832;BME280;46665;51.558;-0.448;2023-07-31T05:07:54;100030.31;;;15.89;100.00
60832;BME280;46665;51.558;-0.448;2023-07-31T05:10:20;100023.22;;;15.88;100.00
60832;BME280;46665;51.558;-0.448;2023-07-31T05:12:45;100028.84;;;15.92;100.00
60832;BME280;46665;51.558;-0.448;2023-07-31T05:15:10;100020.13;;;15.90;100.00
60832;BME280;46665;51.558;-0.448;2023-07-31T05:17:36;100032.38;;;15.92;100.00
60832;BME280;46665;51.558;-0.448;2023-07-31T05:20:01;100022.22;;;15.93;100.00
60832;BME280;46665;51.558;-0.448;2023-07-31T05:22:27;100024.97;;;15.93;100.00
60832;BME280;46665;51.558;-0.448;2023-07-31T05:24:52;100032.19;;;15.97;100.00
60832;BME280;46665;51.558;-0.448;2023-07-31T05:27:19;100031.38;;;15.97;100.00
60832;BME280;46665;51.558;-0.448;2023-07-31T05:29:44;100031.38;;;15.97;100.00
60832;BME280;46665;51.558;-0.448;2023-07-31T05:32:10;100032.66;;;15.99;100.00
60832;BME280;46665;51.558;-0.448;2023-07-31T05:34:35;100036.00;;;16.05;100.00
60832;BME280;46665;51.558;-0.448;2023-07-31T05:37:01;100033.28;;;16.05;100.00
60832;BME280;46665;51.558;-0.448;2023-07-31T05:39:26;100031.78;;;16.08;100.00
60832;BME280;46665;51.558;-0.448;2023-07-31T05:41:52;100034.22;;;16.09;100.00
60832;BME280;46665;51.558;-0.448;2023-07-31T05:44:17;100033.75;;;16.07;100.00
60832;BME280;46665;51.558;-0.448;2023-07-31T05:46:42;100041.66;;;16.09;100.00
60832;BME280;46665;51.558;-0.448;2023-07-31T05:49:08;100040.38;;;16.06;100.00
60832;BME280;46665;51.558;-0.448;2023-07-31T05:51:33;100045.88;;;16.06;100.00
60832;BME280;46665;51.558;-0.448;2023-07-31T05:53:58;100037.63;;;16.06;100.00
60832;BME280;46665;51.558;-0.448;2023-07-31T05:56:24;100040.38;;;16.06;100.00
60832;BME280;46665;51.558;-0.448;2023-07-31T05:58:49;100051.34;;;16.06;100.00
60832;BME280;46665;51.558;-0.448;2023-07-31T06:01:16;100052.47;;;16.05;100.00
60832;BME280;46665;51.558;-0.448;2023-07-31T06:03:42;100048.00;;;16.00;100.00
60832;BME280;46665;51.558;-0.448;2023-07-31T06:06:07;100051.06;;;15.99;100.00
60832;BME280;46665;51.558;-0.448;2023-07-31T06:08:33;100049.94;;;16.00;100.00
60832;BME280;46665;51.558;-0.448;2023-07-31T06:10:58;100039.31;;;15.98;100.00
60832;BME280;46665;51.558;-0.448;2023-07-31T06:13:24;100040.56;;;16.01;100.00
60832;BME280;46665;51.558;-0.448;2023-07-31T06:15:49;100035.22;;;16.04;100.00
60832;BME280;46665;51.558;-0.448;2023-07-31T06:18:14;100028.25;;;16.07;100.00
60832;BME280;46665;51.558;-0.448;2023-07-31T06:20:40;100033.06;;;16.10;100.00
60832;BME280;46665;51.558;-0.448;2023-07-31T06:23:06;100031.59;;;16.13;100.00
60832;BME280;46665;51.558;-0.448;2023-07-31T06:25:31;100044.69;;;16.16;100.00
60832;BME280;46665;51.558;-0.448;2023-07-31T06:27:57;100045.13;;;16.18;100.00
60832;BME280;46665;51.558;-0.448;2023-07-31T06:30:22;100031.56;;;16.21;100.00
60832;BME280;46665;51.558;-0.448;2023-07-31T06:32:47;100027.81;;;16.26;100.00
60832;BME280;46665;51.558;-0.448;2023-07-31T06:35:13;100028.13;;;16.24;100.00
60832;BME280;46665;51.558;-0.448;2023-07-31T06:37:38;100042.66;;;16.25;100.00
60832;BME280;46665;51.558;-0.448;2023-07-31T06:40:06;100036.09;;;16.17;100.00
60832;BME280;46665;51.558;-0.448;2023-07-31T06:42:34;100041.47;;;16.14;100.00
60832;BME280;46665;51.558;-0.448;2023-07-31T06:45:00;100036.28;;;16.12;100.00
60832;BME280;46665;51.558;-0.448;2023-07-31T06:47:25;100033.56;;;16.12;100.00
60832;BME280;46665;51.558;-0.448;2023-07-31T06:49:51;100035.50;;;16.12;100.00
60832;BME280;46665;51.558;-0.448;2023-07-31T06:52:16;100024.72;;;16.07;100.00
60832;BME280;46665;51.558;-0.448;2023-07-31T06:54:42;100019.53;;;16.05;100.00
60832;BME280;46665;51.558;-0.448;2023-07-31T06:57:07;100014.41;;;16.03;100.00
60832;BME280;46665;51.558;-0.448;2023-07-31T06:59:33;100012.34;;;16.00;100.00
60832;BME280;46665;51.558;-0.448;2023-07-31T07:01:58;100012.66;;;15.99;100.00
60832;BME280;46665;51.558;-0.448;2023-07-31T07:04:24;100016.88;;;15.96;100.00
60832;BME280;46665;51.558;-0.448;2023-07-31T07:06:49;100011.25;;;15.93;100.00
60832;BME280;46665;51.558;-0.448;2023-07-31T07:09:14;100009.63;;;15.92;100.00
60832;BME280;46665;51.558;-0.448;2023-07-31T07:11:40;100002.75;;;15.86;100.00
60832;BME280;46665;51.558;-0.448;2023-07-31T07:14:05;99999.19;;;15.85;100.00
60832;BME280;46665;51.558;-0.448;2023-07-31T07:16:31;100004.81;;;15.89;100.00
60832;BME280;46665;51.558;-0.448;2023-07-31T07:18:56;99998.19;;;15.90;100.00
60832;BME280;46665;51.558;-0.448;2023-07-31T07:21:22;100000.13;;;15.89;100.00
60832;BME280;46665;51.558;-0.448;2023-07-31T07:23:48;100008.69;;;15.88;100.00
60832;BME280;46665;51.558;-0.448;2023-07-31T07:26:13;100001.28;;;15.88;100.00
60832;BME280;46665;51.558;-0.448;2023-07-31T07:28:38;100002.53;;;15.91;100.00
60832;BME280;46665;51.558;-0.448;2023-07-31T07:31:04;99999.31;;;15.89;100.00
60832;BME280;46665;51.558;-0.448;2023-07-31T07:33:30;99995.13;;;15.91;100.00
60832;BME280;46665;51.558;-0.448;2023-07-31T07:35:55;99993.31;;;15.95;100.00
60832;BME280;46665;51.558;-0.448;2023-07-31T07:38:20;100009.91;;;15.99;100.00
60832;BME280;46665;51.558;-0.448;2023-07-31T07:40:46;100004.44;;;15.99;100.00
60832;BME280;46665;51.558;-0.448;2023-07-31T07:43:15;99998.94;;;15.99;100.00
60832;BME280;46665;51.558;-0.448;2023-07-31T07:45:40;99996.78;;;16.04;100.00
60832;BME280;46665;51.558;-0.448;2023-07-31T07:48:06;99989.56;;;16.00;100.00
60832;BME280;46665;51.558;-0.448;2023-07-31T07:50:31;99996.13;;;16.08;100.00
60832;BME280;46665;51.558;-0.448;2023-07-31T07:52:57;99997.88;;;16.12;100.00
60832;BME280;46665;51.558;-0.448;2023-07-31T07:55:22;99982.56;;;16.11;100.00
60832;BME280;46665;51.558;-0.448;2023-07-31T07:57:48;99977.53;;;16.13;100.00
60832;BME280;46665;51.558;-0.448;2023-07-31T08:00:15;99977.34;;;16.18;100.00
60832;BME280;46665;51.558;-0.448;2023-07-31T08:02:42;99966.00;;;16.20;100.00
60832;BME280;46665;51.558;-0.448;2023-07-31T08:05:07;99970.97;;;16.27;100.00
60832;BME280;46665;51.558;-0.448;2023-07-31T08:07:33;99971.91;;;16.31;100.00
60832;BME280;46665;51.558;-0.448;2023-07-31T08:09:58;99978.00;;;16.36;100.00
60832;BME280;46665;51.558;-0.448;2023-07-31T08:12:24;99976.72;;;16.34;100.00
60832;BME280;46665;51.558;-0.448;2023-07-31T08:14:49;99975.09;;;16.33;100.00
60832;BME280;46665;51.558;-0.448;2023-07-31T08:17:14;99959.31;;;16.30;100.00
60832;BME280;46665;51.558;-0.448;2023-07-31T08:19:40;99956.03;;;16.36;100.00
60832;BME280;46665;51.558;-0.448;2023-07-31T08:22:05;99948.59;;;16.37;100.00
60832;BME280;46665;51.558;-0.448;2023-07-31T08:24:31;99955.81;;;16.41;100.00
60832;BME280;46665;51.558;-0.448;2023-07-31T08:26:57;99948.66;;;16.49;100.00
60832;BME280;46665;51.558;-0.448;2023-07-31T08:29:22;99944.53;;;16.55;100.00
60832;BME280;46665;51.558;-0.448;2023-07-31T08:31:48;99957.56;;;16.46;100.00
60832;BME280;46665;51.558;-0.448;2023-07-31T08:34:13;99948.84;;;16.44;100.00
60832;BME280;46665;51.558;-0.448;2023-07-31T08:36:38;99959.47;;;16.45;100.00
60832;BME280;46665;51.558;-0.448;2023-07-31T08:39:04;99951.94;;;16.42;100.00
60832;BME280;46665;51.558;-0.448;2023-07-31T08:41:29;99945.72;;;16.33;100.00
60832;BME280;46665;51.558;-0.448;2023-07-31T08:43:55;99939.41;;;16.33;100.00
60832;BME280;46665;51.558;-0.448;2023-07-31T08:46:21;99948.25;;;16.38;100.00
60832;BME280;46665;51.558;-0.448;2023-07-31T08:48:46;99941.41;;;16.44;100.00
60832;BME280;46665;51.558;-0.448;2023-07-31T08:51:14;99946.78;;;16.41;100.00
60832;BME280;46665;51.558;-0.448;2023-07-31T08:53:40;99942.31;;;16.36;100.00
60832;BME280;46665;51.558;-0.448;2023-07-31T08:56:06;99947.44;;;16.38;100.00
60832;BME280;46665;51.558;-0.448;2023-07-31T08:58:32;99948.00;;;16.31;100.00
60832;BME280;46665;51.558;-0.448;2023-07-31T09:01:01;99942.38;;;16.28;100.00
60832;BME280;46665;51.558;-0.448;2023-07-31T09:03:26;99949.59;;;16.32;100.00
60832;BME280;46665;51.558;-0.448;2023-07-31T09:05:52;99940.44;;;16.28;100.00
60832;BME280;46665;51.558;-0.448;2023-07-31T09:08:20;99953.03;;;16.29;100.00
60832;BME280;46665;51.558;-0.448;2023-07-31T09:10:46;99947.22;;;16.31;100.00
60832;BME280;46665;51.558;-0.448;2023-07-31T09:13:13;99953.50;;;16.31;100.00
60832;BME280;46665;51.558;-0.448;2023-07-31T09:15:39;99951.53;;;16.32;100.00
60832;BME280;46665;51.558;-0.448;2023-07-31T09:18:06;99943.19;;;16.28;100.00
60832;BME280;46665;51.558;-0.448;2023-07-31T09:20:32;99944.19;;;16.23;100.00
60832;BME280;46665;51.558;-0.448;2023-07-31T09:23:09;99922.91;;;16.20;100.00
60832;BME280;46665;51.558;-0.448;2023-07-31T09:25:36;99901.75;;;16.21;100.00
60832;BME280;46665;51.558;-0.448;2023-07-31T09:28:09;99900.28;;;16.23;100.00
60832;BME280;46665;51.558;-0.448;2023-07-31T09:30:49;99888.94;;;16.25;100.00
60832;BME280;46665;51.558;-0.448;2023-07-31T09:33:16;99894.91;;;16.27;100.00
60832;BME280;46665;51.558;-0.448;2023-07-31T09:35:41;99906.34;;;16.29;100.00
60832;BME280;46665;51.558;-0.448;2023-07-31T09:38:10;99905.19;;;16.30;100.00
60832;BME280;46665;51.558;-0.448;2023-07-31T09:40:37;99914.97;;;16.40;100.00
60832;BME280;46665;51.558;-0.448;2023-07-31T09:43:05;99892.09;;;16.36;100.00
60832;BME280;46665;51.558;-0.448;2023-07-31T09:45:37;99895.53;;;16.45;100.00
60832;BME280;46665;51.558;-0.448;2023-07-31T09:48:07;99880.78;;;16.50;100.00
60832;BME280;46665;51.558;-0.448;2023-07-31T09:50:36;99903.56;;;16.50;100.00
60832;BME280;46665;51.558;-0.448;2023-07-31T09:53:04;99922.78;;;16.50;100.00
60832;BME280;46665;51.558;-0.448;2023-07-31T09:55:29;99922.66;;;16.46;100.00
60832;BME280;46665;51.558;-0.448;2023-07-31T09:57:57;99932.13;;;16.37;100.00
60832;BME280;46665;51.558;-0.448;2023-07-31T10:00:23;99935.97;;;16.23;100.00
60832;BME280;46665;51.558;-0.448;2023-07-31T10:02:52;99918.22;;;16.21;100.00
60832;BME280;46665;51.558;-0.448;2023-07-31T10:05:19;99906.63;;;16.15;100.00
60832;BME280;46665;51.558;-0.448;2023-07-31T10:07:54;99890.38;;;16.10;100.00
60832;BME280;46665;51.558;-0.448;2023-07-31T10:10:23;99908.56;;;16.15;100.00
60832;BME280;46665;51.558;-0.448;2023-07-31T10:12:52;99903.34;;;16.22;100.00
60832;BME280;46665;51.558;-0.448;2023-07-31T10:15:18;99911.84;;;16.29;100.00
60832;BME280;46665;51.558;-0.448;2023-07-31T10:17:48;99932.91;;;16.37;100.00
60832;BME280;46665;51.558;-0.448;2023-07-31T10:20:15;99930.31;;;16.41;100.00
60832;BME280;46665;51.558;-0.448;2023-07-31T10:22:45;99918.66;;;16.44;100.00
60832;BME280;46665;51.558;-0.448;2023-07-31T10:25:15;99918.19;;;16.42;100.00
60832;BME280;46665;51.558;-0.448;2023-07-31T10:27:41;99919.56;;;16.48;100.00
60832;BME280;46665;51.558;-0.448;2023-07-31T10:30:09;99915.47;;;16.54;100.00
60832;BME280;46665;51.558;-0.448;2023-07-31T10:32:38;99922.78;;;16.50;100.00
60832;BME280;46665;51.558;-0.448;2023-07-31T10:35:04;99905.88;;;16.60;100.00
60832;BME280;46665;51.558;-0.448;2023-07-31T10:37:38;99929.03;;;16.72;100.00
60832;BME280;46665;51.558;-0.448;2023-07-31T10:40:06;99943.69;;;16.76;100.00
60832;BME280;46665;51.558;-0.448;2023-07-31T10:45:05;99931.59;;;16.56;100.00
60832;BME280;46665;51.558;-0.448;2023-07-31T10:47:45;99950.28;;;16.62;100.00
60832;BME280;46665;51.558;-0.448;2023-07-31T10:52:36;99948.28;;;16.51;100.00
60832;BME280;46665;51.558;-0.448;2023-07-31T10:55:24;99924.00;;;16.40;100.00
60832;BME280;46665;51.558;-0.448;2023-07-31T10:57:50;99925.72;;;16.45;100.00
60832;BME280;46665;51.558;-0.448;2023-07-31T11:03:03;99924.81;;;16.41;100.00
60832;BME280;46665;51.558;-0.448;2023-07-31T11:05:46;99928.63;;;16.49;100.00
60832;BME280;46665;51.558;-0.448;2023-07-31T11:08:12;99928.75;;;16.52;100.00
60832;BME280;46665;51.558;-0.448;2023-07-31T11:10:37;99924.72;;;16.50;100.00
60832;BME280;46665;51.558;-0.448;2023-07-31T11:13:04;99929.41;;;16.49;100.00
60832;BME280;46665;51.558;-0.448;2023-07-31T11:15:30;99943.47;;;16.47;100.00
60832;BME280;46665;51.558;-0.448;2023-07-31T11:17:56;99934.13;;;16.49;100.00
60832;BME280;46665;51.558;-0.448;2023-07-31T11:20:24;99941.94;;;16.59;100.00
60832;BME280;46665;51.558;-0.448;2023-07-31T11:22:49;99919.53;;;16.69;100.00
60832;BME280;46665;51.558;-0.448;2023-07-31T11:25:15;99913.25;;;16.68;100.00
60832;BME280;46665;51.558;-0.448;2023-07-31T11:27:41;99918.38;;;16.70;100.00
60832;BME280;46665;51.558;-0.448;2023-07-31T11:30:09;99918.69;;;16.56;100.00
60832;BME280;46665;51.558;-0.448;2023-07-31T11:32:36;99909.31;;;16.57;100.00
60832;BME280;46665;51.558;-0.448;2023-07-31T11:35:02;99909.88;;;16.63;100.00
60832;BME280;46665;51.558;-0.448;2023-07-31T11:37:42;99907.03;;;16.59;100.00
60832;BME280;46665;51.558;-0.448;2023-07-31T11:40:08;99922.63;;;16.34;100.00
60832;BME280;46665;51.558;-0.448;2023-07-31T11:42:37;99929.59;;;16.32;100.00
60832;BME280;46665;51.558;-0.448;2023-07-31T11:45:04;99931.31;;;16.15;100.00
60832;BME280;46665;51.558;-0.448;2023-07-31T11:47:30;99939.31;;;16.08;100.00
60832;BME280;46665;51.558;-0.448;2023-07-31T11:49:57;99946.31;;;16.18;100.00
60832;BME280;46665;51.558;-0.448;2023-07-31T11:52:23;99942.56;;;16.22;100.00
60832;BME280;46665;51.558;-0.448;2023-07-31T11:54:49;99944.59;;;16.13;100.00
60832;BME280;46665;51.558;-0.448;2023-07-31T11:57:15;99942.50;;;16.10;100.00
60832;BME280;46665;51.558;-0.448;2023-07-31T11:59:41;99925.44;;;16.25;100.00
60832;BME280;46665;51.558;-0.448;2023-07-31T12:02:07;99949.34;;;16.25;100.00
60832;BME280;46665;51.558;-0.448;2023-07-31T12:04:33;99943.72;;;16.21;100.00
60832;BME280;46665;51.558;-0.448;2023-07-31T12:07:00;99935.34;;;16.18;100.00
60832;BME280;46665;51.558;-0.448;2023-07-31T12:09:25;99932.94;;;16.16;100.00
60832;BME280;46665;51.558;-0.448;2023-07-31T12:11:51;99935.22;;;16.14;100.00
60832;BME280;46665;51.558;-0.448;2023-07-31T12:14:27;99931.09;;;16.08;100.00
60832;BME280;46665;51.558;-0.448;2023-07-31T12:17:14;99937.78;;;15.98;100.00
60832;BME280;46665;51.558;-0.448;2023-07-31T12:19:40;99931.22;;;15.91;100.00
60832;BME280;46665;51.558;-0.448;2023-07-31T12:22:13;99931.22;;;15.91;100.00
60832;BME280;46665;51.558;-0.448;2023-07-31T12:24:47;99923.66;;;15.88;100.00
60832;BME280;46665;51.558;-0.448;2023-07-31T12:27:14;99939.44;;;15.91;100.00
60832;BME280;46665;51.558;-0.448;2023-07-31T12:29:43;99927.88;;;15.85;100.00
60832;BME280;46665;51.558;-0.448;2023-07-31T12:32:23;99914.59;;;15.87;100.00
60832;BME280;46665;51.558;-0.448;2023-07-31T12:34:50;99910.53;;;15.93;100.00
60832;BME280;46665;51.558;-0.448;2023-07-31T12:37:15;99903.44;;;15.92;100.00
60832;BME280;46665;51.558;-0.448;2023-07-31T12:39:41;99907.84;;;15.85;100.00
60832;BME280;46665;51.558;-0.448;2023-07-31T12:42:06;99906.03;;;15.89;100.00
60832;BME280;46665;51.558;-0.448;2023-07-31T12:44:32;99903.97;;;15.86;100.00